Time;durP1;ratioP1;P1;durP2;ratioP2;P2;SDS_P1;SDS_P2;PMS_P1;PMS_P2;Temp;Humidity;BMP_temperature;BMP_pressure;BME280_temperature;BME280_humidity;BME280_pressure;Samples;Min_cycle;Max_cycle;Signal;HPM_P1;HPM_P2
2023/01/18 00:01:22;;;;;;;72.28;33.63;;;;;;;-3.51;100.00;99117.44;5265038;28;20012;-72
2023/01/18 00:03:52;;;;;;;73.90;33.25;;;;;;;-3.40;100.00;99116.59;5251421;28;20537;-72
2023/01/18 00:06:26;;;;;;;79.85;34.92;;;;;;;-3.35;100.00;99119.72;5264950;28;20024;-73
2023/01/18 00:08:57;;;;;;;76.35;34.13;;;;;;;-3.27;100.00;99125.16;5265181;28;20439;-73
2023/01/18 00:11:27;;;;;;;73.80;31.92;;;;;;;-3.25;100.00;99122.44;5264582;28;20060;-73
2023/01/18 00:13:57;;;;;;;84.68;34.83;;;;;;;-3.23;100.00;99125.75;5265646;28;20643;-73
2023/01/18 00:16:29;;;;;;;74.63;33.15;;;;;;;-3.25;100.00;99123.28;5264015;28;20016;-73
2023/01/18 00:18:59;;;;;;;74.35;33.13;;;;;;;-3.30;100.00;99127.22;5265339;28;20032;-74
2023/01/18 00:21:30;;;;;;;82.78;35.10;;;;;;;-3.36;100.00;99127.66;5264955;28;20160;-73
2023/01/18 00:24:00;;;;;;;73.22;33.05;;;;;;;-3.41;100.00;99126.28;5243110;28;20103;-73
2023/01/18 00:26:31;;;;;;;83.55;32.45;;;;;;;-3.48;100.00;99135.53;5262441;28;20031;-74
2023/01/18 00:29:01;;;;;;;73.63;34.22;;;;;;;-3.54;100.00;99133.41;5264723;28;20036;-73
2023/01/18 00:31:32;;;;;;;79.45;35.28;;;;;;;-3.61;100.00;99134.84;5246414;28;20024;-73
2023/01/18 00:34:02;;;;;;;84.97;33.50;;;;;;;-3.68;100.00;99133.63;5264649;28;20061;-73
2023/01/18 00:36:33;;;;;;;75.40;33.42;;;;;;;-3.73;100.00;99136.59;5264832;28;20020;-73
2023/01/18 00:39:03;;;;;;;80.90;35.05;;;;;;;-3.78;100.00;99136.13;5264575;28;20491;-74
2023/01/18 00:43:37;;;;;;;75.78;33.55;;;;;;;-3.82;100.00;99137.31;5264330;28;20028;-74
2023/01/18 00:44:24;;;;;;;78.47;35.00;;;;;;;-3.82;100.00;99139.91;5264570;28;20035;-73
2023/01/18 00:46:55;;;;;;;82.25;34.38;;;;;;;-3.82;100.00;99142.53;5267919;28;20028;-73
2023/01/18 00:49:25;;;;;;;77.70;34.63;;;;;;;-3.81;100.00;99140.78;5269169;28;20020;-73
2023/01/18 00:51:56;;;;;;;87.28;36.35;;;;;;;-3.81;100.00;99140.78;5268688;28;20051;-72
2023/01/18 00:54:26;;;;;;;83.07;34.95;;;;;;;-3.83;100.00;99147.91;5269380;28;20461;-72
2023/01/18 00:56:57;;;;;;;75.22;34.58;;;;;;;-3.86;100.00;99146.38;5268799;28;20486;-73
2023/01/18 00:59:27;;;;;;;76.45;33.90;;;;;;;-3.87;100.00;99152.53;5268805;28;20523;-73
2023/01/18 01:01:58;;;;;;;74.93;32.38;;;;;;;-3.89;100.00;99154.44;5265575;28;20024;-73
2023/01/18 01:07:17;;;;;;;84.95;35.55;;;;;;;-3.86;100.00;99150.78;5268367;28;20085;-72
2023/01/18 01:09:48;;;;;;;92.72;39.80;;;;;;;-3.92;100.00;99154.66;5268296;28;20024;-73
2023/01/18 01:26:25;;;;;;;70.80;30.38;;;;;;;-4.14;100.00;99172.97;5268108;28;20106;-73
2023/01/18 01:28:55;;;;;;;70.78;32.38;;;;;;;-4.14;100.00;99168.56;5268557;28;20460;-74
2023/01/18 01:31:26;;;;;;;69.40;29.77;;;;;;;-4.18;100.00;99174.97;5267863;28;20081;-72
2023/01/18 01:33:56;;;;;;;66.95;31.38;;;;;;;-4.19;100.00;99178.53;5268317;28;20029;-72
2023/01/18 01:36:27;;;;;;;64.25;30.00;;;;;;;-4.17;100.00;99187.97;5267765;28;20024;-73
2023/01/18 01:38:57;;;;;;;72.45;32.90;;;;;;;-4.12;100.00;99177.13;5268138;28;20020;-73
2023/01/18 01:41:31;;;;;;;80.05;33.45;;;;;;;-4.11;100.00;99180.59;5268325;28;20107;-72
2023/01/18 01:44:28;;;;;;;77.43;32.97;;;;;;;-4.14;100.00;99181.66;5267921;28;20436;-72
2023/01/18 01:47:03;;;;;;;65.63;30.20;;;;;;;-4.17;100.00;99189.72;5255271;28;20089;-73
2023/01/18 01:49:38;;;;;;;67.60;30.92;;;;;;;-4.22;100.00;99189.22;5268108;28;20507;-72
2023/01/18 01:52:13;;;;;;;76.82;30.08;;;;;;;-4.10;100.00;99195.34;5267436;28;20020;-72
2023/01/18 01:55:03;;;;;;;71.60;30.10;;;;;;;-3.97;100.00;99193.47;5250121;28;20028;-72
2023/01/18 01:57:40;;;;;;;66.70;29.23;;;;;;;-3.96;100.00;99190.75;5267207;28;20377;-72
2023/01/18 02:00:18;;;;;;;71.05;30.40;;;;;;;-3.98;100.00;99190.03;5266896;28;20016;-72
2023/01/18 02:03:11;;;;;;;68.35;29.88;;;;;;;-4.04;100.00;99200.97;5257030;28;20028;-73
2023/01/18 02:05:46;;;;;;;64.95;29.35;;;;;;;-4.12;100.00;99202.47;5267941;28;20039;-72
2023/01/18 02:08:21;;;;;;;71.13;30.20;;;;;;;-4.23;100.00;99193.63;5267894;28;20111;-72
2023/01/18 02:10:51;;;;;;;67.10;30.73;;;;;;;-4.29;100.00;99201.09;5267159;28;20502;-73
2023/01/18 02:13:24;;;;;;;66.25;29.00;;;;;;;-4.36;100.00;99200.72;5267623;28;20020;-73
2023/01/18 02:15:54;;;;;;;71.97;31.95;;;;;;;-4.41;100.00;99202.84;5267417;28;20124;-72
2023/01/18 02:18:44;;;;;;;68.47;28.48;;;;;;;-4.45;100.00;99204.84;5267154;28;20039;-72
2023/01/18 02:21:23;;;;;;;71.00;29.50;;;;;;;-4.40;100.00;99203.69;5267111;28;20027;-73
2023/01/18 02:24:15;;;;;;;66.22;30.73;;;;;;;-4.40;100.00;99212.38;5267707;28;20205;-73
2023/01/18 02:26:55;;;;;;;70.35;29.70;;;;;;;-4.40;100.00;99203.69;5267130;28;20480;-72
2023/01/18 02:29:39;;;;;;;72.18;28.35;;;;;;;-4.43;100.00;99212.56;5249120;28;20060;-73
2023/01/18 02:32:22;;;;;;;79.03;30.10;;;;;;;-4.49;100.00;99208.63;5268252;28;20498;-73
2023/01/18 02:35:09;;;;;;;66.97;28.52;;;;;;;-4.51;100.00;99212.31;5267507;28;20081;-73
2023/01/18 02:37:54;;;;;;;61.42;28.27;;;;;;;-4.57;100.00;99210.97;5267404;28;20016;-73
2023/01/18 02:40:29;;;;;;;61.20;29.05;;;;;;;-4.59;100.00;99215.47;5249083;28;20051;-72
2023/01/18 02:48:44;;;;;;;62.65;27.45;;;;;;;-4.59;100.00;99223.31;5267249;28;20027;-72
2023/01/18 02:51:14;;;;;;;76.20;28.70;;;;;;;-4.59;100.00;99225.94;5248581;28;20031;-72
2023/01/18 02:53:47;;;;;;;64.72;28.50;;;;;;;-4.61;100.00;99230.47;5266970;28;20469;-73
2023/01/18 02:56:38;;;;;;;56.85;24.17;;;;;;;-4.63;100.00;99228.88;5266838;28;20043;-72
2023/01/18 02:59:19;;;;;;;64.00;26.88;;;;;;;-4.59;100.00;99230.34;5266456;28;20019;-73
2023/01/18 03:01:54;;;;;;;61.60;27.02;;;;;;;-4.60;100.00;99244.38;5264547;28;20038;-73
2023/01/18 03:04:29;;;;;;;53.22;23.23;;;;;;;-4.56;100.00;99241.44;5237786;28;20073;-73
2023/01/18 03:07:20;;;;;;;62.60;25.83;;;;;;;-4.48;100.00;99236.47;5266224;28;20165;-74
2023/01/18 03:09:52;;;;;;;58.70;24.20;;;;;;;-4.46;100.00;99245.06;5265606;28;20051;-73
2023/01/18 03:12:45;;;;;;;58.22;25.00;;;;;;;-4.43;100.00;99239.59;5266438;28;20054;-73
2023/01/18 03:15:16;;;;;;;57.28;23.15;;;;;;;-4.40;100.00;99248.19;5263851;28;20020;-74
2023/01/18 03:17:52;;;;;;;59.75;24.25;;;;;;;-4.36;100.00;99247.84;5265927;28;20031;-74
2023/01/18 03:20:45;;;;;;;67.18;27.80;;;;;;;-4.30;100.00;99246.56;5266551;28;20016;-73
2023/01/18 03:23:39;;;;;;;66.93;25.98;;;;;;;-4.33;100.00;99245.00;5266251;28;20067;-73
2023/01/18 03:26:15;;;;;;;58.22;24.45;;;;;;;-4.35;100.00;99246.91;5266244;28;20100;-73
2023/01/18 03:34:41;;;;;;;66.20;24.38;;;;;;;-4.34;100.00;99251.19;5266219;28;20035;-73
2023/01/18 03:37:31;;;;;;;55.75;24.20;;;;;;;-4.36;100.00;99254.88;5247809;28;20024;-72
2023/01/18 03:40:07;;;;;;;60.83;25.50;;;;;;;-4.40;100.00;99248.19;5254700;28;20023;-73
2023/01/18 03:42:58;;;;;;;56.97;24.90;;;;;;;-4.47;100.00;99247.78;5265467;28;20111;-74
2023/01/18 03:45:32;;;;;;;55.50;24.17;;;;;;;-4.54;100.00;99246.53;5265794;28;20103;-75
2023/01/18 03:48:06;;;;;;;60.33;24.92;;;;;;;-4.55;100.00;99253.56;5265782;28;20111;-72
2023/01/18 03:51:11;;;;;;;69.63;25.88;;;;;;;-4.54;100.00;99255.22;5265608;28;20393;-72
2023/01/18 03:54:23;;;;;;;64.70;25.65;;;;;;;-4.51;100.00;99268.13;5254811;28;20505;-72
2023/01/18 03:57:03;;;;;;;58.00;26.00;;;;;;;-4.54;100.00;99260.47;5180134;28;20065;-72
2023/01/18 03:59:37;;;;;;;60.25;24.70;;;;;;;-4.57;100.00;99260.72;5170255;28;20038;-72
2023/01/18 04:02:08;;;;;;;56.83;24.75;;;;;;;-4.59;100.00;99270.44;5229582;28;20036;-72
2023/01/18 04:04:39;;;;;;;57.72;24.20;;;;;;;-4.61;100.00;99281.97;5256694;28;20089;-71
2023/01/18 04:07:09;;;;;;;65.50;23.80;;;;;;;-4.63;100.00;99279.44;5265779;28;20016;-72
2023/01/18 04:09:40;;;;;;;52.53;22.95;;;;;;;-4.64;100.00;99282.16;5265047;28;20051;-72
2023/01/18 04:12:10;;;;;;;58.42;23.65;;;;;;;-4.68;100.00;99286.78;5265350;28;20401;-72
2023/01/18 04:14:40;;;;;;;56.67;22.77;;;;;;;-4.72;100.00;99290.53;5247178;28;20491;-72
2023/01/18 04:17:11;;;;;;;57.15;23.73;;;;;;;-4.73;100.00;99289.72;5265144;28;20141;-72
2023/01/18 04:19:42;;;;;;;59.65;24.92;;;;;;;-4.73;100.00;99284.47;5264642;28;20073;-72
2023/01/18 04:22:12;;;;;;;52.97;23.45;;;;;;;-4.68;100.00;99294.63;5264802;28;20032;-72
2023/01/18 04:24:43;;;;;;;57.78;23.48;;;;;;;-4.65;100.00;99290.97;5265332;28;20161;-72
2023/01/18 04:27:13;;;;;;;58.67;24.50;;;;;;;-4.67;100.00;99296.28;5264974;28;20479;-72
2023/01/18 04:29:44;;;;;;;63.60;23.13;;;;;;;-4.68;100.00;99299.84;5264950;28;20036;-72
2023/01/18 04:32:14;;;;;;;58.45;23.85;;;;;;;-4.69;100.00;99301.66;5265717;28;20028;-72
2023/01/18 04:34:45;;;;;;;52.80;24.02;;;;;;;-4.68;100.00;99303.31;5264838;28;20111;-72
2023/01/18 04:37:15;;;;;;;55.58;22.48;;;;;;;-4.66;100.00;99300.59;5264964;28;20021;-72
2023/01/18 04:39:46;;;;;;;53.63;24.27;;;;;;;-4.68;100.00;99298.06;5265118;28;20528;-72
2023/01/18 04:42:16;;;;;;;48.40;22.73;;;;;;;-4.65;100.00;99307.50;5246918;28;20024;-71
2023/01/18 04:44:47;;;;;;;52.25;22.85;;;;;;;-4.62;100.00;99307.28;5265844;28;20046;-72
2023/01/18 04:47:18;;;;;;;55.20;23.65;;;;;;;-4.55;100.00;99303.28;5264867;28;20027;-72
2023/01/18 04:49:48;;;;;;;60.03;24.42;;;;;;;-4.47;100.00;99306.22;5265107;28;20141;-71
2023/01/18 04:52:19;;;;;;;57.63;25.52;;;;;;;-4.39;100.00;99307.44;5265031;28;20024;-72
2023/01/18 04:54:49;;;;;;;58.13;24.50;;;;;;;-4.31;100.00;99305.97;5265313;28;20038;-72
2023/01/18 04:57:19;;;;;;;59.50;24.92;;;;;;;-4.32;100.00;99317.34;5264418;28;20107;-72
2023/01/18 04:59:50;;;;;;;56.80;24.02;;;;;;;-4.30;100.00;99318.09;5264710;28;20027;-72
2023/01/18 05:02:20;;;;;;;57.25;24.73;;;;;;;-4.27;100.00;99317.03;5264730;28;20035;-72
2023/01/18 05:04:51;;;;;;;60.47;23.70;;;;;;;-4.27;100.00;99325.72;5265055;28;20114;-72
2023/01/18 05:07:24;;;;;;;58.47;24.52;;;;;;;-4.30;100.00;99327.75;5264998;28;20032;-72
2023/01/18 05:09:55;;;;;;;55.60;22.90;;;;;;;-4.34;100.00;99339.38;5264369;28;20080;-72
2023/01/18 05:12:27;;;;;;;53.63;23.30;;;;;;;-4.37;100.00;99332.56;5264822;28;20024;-72
2023/01/18 05:14:57;;;;;;;50.75;21.83;;;;;;;-4.44;100.00;99333.94;5262331;28;20059;-72
2023/01/18 05:17:29;;;;;;;46.83;20.77;;;;;;;-4.53;100.00;99332.81;5264651;28;20109;-72
2023/01/18 05:20:01;;;;;;;52.50;19.52;;;;;;;-4.58;100.00;99339.31;5264777;28;20077;-71
2023/01/18 05:22:32;;;;;;;57.40;23.35;;;;;;;-4.61;100.00;99332.53;5264758;28;20408;-72
2023/01/18 05:25:06;;;;;;;56.97;23.67;;;;;;;-4.58;100.00;99336.69;5264820;28;20034;-72
2023/01/18 05:27:36;;;;;;;54.88;22.63;;;;;;;-4.58;100.00;99339.31;5264718;28;20497;-72
2023/01/18 05:30:09;;;;;;;54.80;21.17;;;;;;;-4.56;100.00;99353.97;5251451;28;20024;-72
2023/01/18 05:32:39;;;;;;;51.50;21.80;;;;;;;-4.51;100.00;99356.28;5267273;28;20059;-72
2023/01/18 05:35:10;;;;;;;53.15;23.02;;;;;;;-4.46;100.00;99362.03;5268511;28;20103;-72
2023/01/18 05:37:40;;;;;;;48.70;22.23;;;;;;;-4.49;100.00;99359.59;5268162;28;20023;-72
2023/01/18 05:40:11;;;;;;;53.67;22.60;;;;;;;-4.54;100.00;99356.47;5268440;28;20016;-72
2023/01/18 05:42:42;;;;;;;55.88;22.02;;;;;;;-4.56;100.00;99353.97;5268219;28;20030;-71
2023/01/18 05:45:12;;;;;;;52.88;23.23;;;;;;;-4.56;100.00;99364.44;5268753;28;20031;-72
2023/01/18 05:47:43;;;;;;;57.28;22.60;;;;;;;-4.54;100.00;99359.94;5267904;28;20028;-71
2023/01/18 05:50:14;;;;;;;58.67;22.38;;;;;;;-4.49;100.00;99357.81;5268171;28;20377;-72
2023/01/18 05:52:45;;;;;;;47.88;24.15;;;;;;;-4.47;100.00;99363.81;5268011;28;20031;-72
2023/01/18 05:55:15;;;;;;;62.88;24.23;;;;;;;-4.49;100.00;99365.69;5268249;28;20020;-72
2023/01/18 05:57:46;;;;;;;50.47;22.27;;;;;;;-4.51;100.00;99371.97;5267824;28;20020;-72
2023/01/18 06:00:17;;;;;;;50.00;20.88;;;;;;;-4.49;100.00;99372.69;5267381;28;20023;-72
2023/01/18 06:02:47;;;;;;;47.97;20.58;;;;;;;-4.36;100.00;99381.38;5258361;28;20025;-72
2023/01/18 06:05:19;;;;;;;49.88;21.83;;;;;;;-4.22;100.00;99383.88;5264276;28;20024;-72
2023/01/18 06:07:50;;;;;;;53.95;22.85;;;;;;;-4.18;100.00;99389.72;5268404;28;20038;-72
2023/01/18 06:10:20;;;;;;;49.45;21.33;;;;;;;-4.15;100.00;99384.25;5267347;28;20028;-72
2023/01/18 06:13:04;;;;;;;46.78;22.20;;;;;;;-4.14;100.00;99385.94;5267526;28;20049;-72
2023/01/18 06:15:34;;;;;;;53.28;21.98;;;;;;;-4.14;100.00;99385.09;5267922;28;20107;-72
2023/01/18 06:18:06;;;;;;;53.42;22.67;;;;;;;-4.17;100.00;99399.22;5267531;28;20119;-72
2023/01/18 06:20:37;;;;;;;53.08;22.20;;;;;;;-4.23;100.00;99397.06;5267737;28;20266;-72
2023/01/18 06:23:07;;;;;;;47.20;20.02;;;;;;;-4.29;100.00;99400.09;5267275;28;20042;-72
2023/01/18 06:25:38;;;;;;;42.53;19.77;;;;;;;-4.43;100.00;99412.38;5267899;28;20020;-72
2023/01/18 06:28:08;;;;;;;43.35;20.48;;;;;;;-4.54;100.00;99414.06;5267287;28;20019;-72
2023/01/18 06:30:41;;;;;;;45.20;18.60;;;;;;;-4.59;100.00;99416.16;5267421;28;20484;-72
2023/01/18 06:33:13;;;;;;;39.70;19.73;;;;;;;-4.63;100.00;99410.28;5267153;28;20032;-72
2023/01/18 06:35:43;;;;;;;54.58;20.38;;;;;;;-4.61;100.00;99413.66;5268089;28;20486;-72
2023/01/18 06:38:14;;;;;;;52.92;21.67;;;;;;;-4.57;100.00;99422.97;5267037;28;20016;-72
2023/01/18 06:40:44;;;;;;;50.45;22.75;;;;;;;-4.54;100.00;99425.38;5245465;28;20078;-72
2023/01/18 06:43:15;;;;;;;50.88;21.67;;;;;;;-4.51;100.00;99442.66;5266530;28;20024;-72
2023/01/18 06:45:55;;;;;;;57.25;23.05;;;;;;;-4.49;100.00;99443.38;5248784;28;20028;-72
2023/01/18 06:48:26;;;;;;;51.97;22.92;;;;;;;-4.47;100.00;99450.19;5267063;28;20024;-72
2023/01/18 06:50:57;;;;;;;47.85;21.65;;;;;;;-4.47;100.00;99446.72;5267015;28;20019;-72
2023/01/18 06:53:29;;;;;;;47.50;21.00;;;;;;;-4.50;100.00;99452.19;5267298;28;20024;-72
2023/01/18 06:56:00;;;;;;;52.30;21.83;;;;;;;-4.52;100.00;99452.28;5267064;28;20020;-72
2023/01/18 06:58:32;;;;;;;50.13;20.17;;;;;;;-4.53;100.00;99453.22;5266226;28;20036;-72
2023/01/18 07:01:03;;;;;;;50.40;21.20;;;;;;;-4.53;100.00;99455.81;5266441;28;20020;-72
2023/01/18 07:03:33;;;;;;;45.58;19.65;;;;;;;-4.54;100.00;99459.38;5253006;28;20115;-72
2023/01/18 07:06:06;;;;;;;51.78;21.02;;;;;;;-4.57;100.00;99456.13;5266718;28;20107;-72
2023/01/18 07:08:38;;;;;;;49.28;21.80;;;;;;;-4.62;100.00;99459.06;5266027;28;20103;-72
2023/01/18 07:11:11;;;;;;;50.60;22.40;;;;;;;-4.58;100.00;99471.00;5266147;28;20097;-72
2023/01/18 07:13:42;;;;;;;52.05;23.42;;;;;;;-4.54;100.00;99469.84;5266317;28;20445;-71
2023/01/18 07:16:16;;;;;;;53.83;22.83;;;;;;;-4.52;100.00;99473.22;5266748;28;20102;-71
2023/01/18 07:18:48;;;;;;;56.92;21.20;;;;;;;-4.54;100.00;99480.34;5266019;28;20027;-71
2023/01/18 07:21:19;;;;;;;49.28;20.70;;;;;;;-4.57;100.00;99485.78;5265601;28;20039;-71
2023/01/18 07:23:51;;;;;;;43.70;19.65;;;;;;;-4.60;100.00;99486.00;5266192;28;20035;-71
2023/01/18 07:26:21;;;;;;;59.00;21.65;;;;;;;-4.60;100.00;99493.00;5265938;28;20520;-70
2023/01/18 07:28:54;;;;;;;65.97;26.10;;;;;;;-4.61;100.00;99497.41;5266150;28;20028;-71
2023/01/18 07:31:25;;;;;;;54.67;24.65;;;;;;;-4.63;100.00;99499.25;5265661;28;20035;-71
2023/01/18 07:33:55;;;;;;;66.70;27.15;;;;;;;-4.64;100.00;99508.06;5265776;28;20039;-70
2023/01/18 07:36:26;;;;;;;86.95;33.17;;;;;;;-4.65;100.00;99497.72;5247460;28;20389;-71
2023/01/18 07:38:56;;;;;;;66.43;28.77;;;;;;;-4.67;100.00;99503.03;5265615;28;20020;-71
2023/01/18 07:41:26;;;;;;;62.75;25.92;;;;;;;-4.67;100.00;99505.63;5265700;28;20493;-71
2023/01/18 07:43:57;;;;;;;57.88;23.77;;;;;;;-4.65;100.00;99503.78;5265691;28;20024;-71
2023/01/18 07:46:27;;;;;;;50.92;20.63;;;;;;;-4.52;100.00;99509.88;5265271;28;20028;-71
2023/01/18 07:49:01;;;;;;;57.72;22.45;;;;;;;-4.41;100.00;99505.69;5265821;28;20073;-71
2023/01/18 07:51:32;;;;;;;54.85;23.05;;;;;;;-4.34;100.00;99518.25;5265621;28;20496;-71
2023/01/18 07:54:03;;;;;;;59.95;23.80;;;;;;;-4.28;100.00;99515.22;5247583;28;20102;-71
2023/01/18 07:56:33;;;;;;;54.35;23.15;;;;;;;-4.22;100.00;99520.06;5265381;28;20099;-71
2023/01/18 07:59:04;;;;;;;54.78;24.10;;;;;;;-4.19;100.00;99521.59;5264885;28;20102;-71
2023/01/18 08:01:34;;;;;;;54.15;22.88;;;;;;;-4.24;100.00;99524.53;5265298;28;20205;-70
2023/01/18 08:04:04;;;;;;;52.95;23.05;;;;;;;-4.23;100.00;99526.22;5265412;28;20169;-71
2023/01/18 08:06:35;;;;;;;61.28;24.20;;;;;;;-4.22;100.00;99529.66;5264963;28;20465;-71
2023/01/18 08:09:05;;;;;;;63.03;24.80;;;;;;;-4.19;100.00;99538.16;5289647;22;20051;-74
2023/01/18 08:11:36;;;;;;;57.08;24.00;;;;;;;-4.11;100.00;99544.66;5279293;28;20081;-74
2023/01/18 08:14:06;;;;;;;57.25;24.23;;;;;;;-4.03;100.00;99547.59;5280626;28;20028;-74
2023/01/18 08:16:37;;;;;;;52.13;21.30;;;;;;;-4.02;100.00;99550.09;5280178;28;20549;-75
2023/01/18 08:19:07;;;;;;;52.35;20.98;;;;;;;-4.05;100.00;99557.34;5266980;28;20377;-75
2023/01/18 08:21:39;;;;;;;45.90;19.58;;;;;;;-4.03;100.00;99553.66;5278669;28;20012;-75
2023/01/18 08:24:10;;;;;;;47.97;20.35;;;;;;;-3.99;100.00;99552.50;5278554;28;20034;-75
2023/01/18 08:26:40;;;;;;;46.97;21.30;;;;;;;-3.91;100.00;99555.44;5267061;28;20621;-74
2023/01/18 08:29:11;;;;;;;52.55;22.85;;;;;;;-3.83;100.00;99560.13;5266092;28;20032;-74
2023/01/18 08:31:41;;;;;;;49.80;23.02;;;;;;;-3.72;100.00;99564.63;5265434;28;20028;-74
2023/01/18 08:34:12;;;;;;;55.63;24.42;;;;;;;-3.58;100.00;99566.28;5265646;28;20544;-74
2023/01/18 08:36:42;;;;;;;56.70;26.15;;;;;;;-3.41;100.00;99574.66;5265656;28;20373;-75
2023/01/18 08:39:13;;;;;;;71.40;27.35;;;;;;;-3.23;100.00;99575.13;5265715;28;20028;-75
2023/01/18 08:41:45;;;;;;;60.40;26.42;;;;;;;-3.06;100.00;99575.69;5265897;28;20022;-75
2023/01/18 08:44:16;;;;;;;55.63;24.77;;;;;;;-2.89;100.00;99586.66;5265767;28;20028;-74
2023/01/18 08:46:46;;;;;;;59.67;24.40;;;;;;;-2.67;100.00;99587.69;5265234;28;20116;-75
2023/01/18 08:49:17;;;;;;;59.08;22.92;;;;;;;-2.43;100.00;99596.38;5265613;28;20081;-75
2023/01/18 08:51:47;;;;;;;47.53;22.17;;;;;;;-2.21;100.00;99600.03;5265215;28;20148;-75
2023/01/18 08:54:18;;;;;;;41.42;20.40;;;;;;;-2.01;100.00;99593.28;5264049;28;20028;-75
2023/01/18 08:56:48;;;;;;;39.22;20.65;;;;;;;-1.74;100.00;99598.22;5264888;28;20024;-75
2023/01/18 08:59:19;;;;;;;45.28;19.77;;;;;;;-1.35;100.00;99602.19;5271889;28;20028;-75
2023/01/18 09:01:49;;;;;;;36.17;18.10;;;;;;;-0.94;100.00;99608.56;5271243;28;20028;-75
2023/01/18 09:04:21;;;;;;;39.72;18.52;;;;;;;-0.07;100.00;99607.50;5265303;28;20077;-75
2023/01/18 09:06:52;;;;;;;31.75;16.08;;;;;;;0.58;100.00;99607.28;5267741;28;20040;-76
2023/01/18 09:09:22;;;;;;;34.58;16.13;;;;;;;1.20;100.00;99603.56;5269378;28;20133;-76
2023/01/18 09:11:54;;;;;;;35.20;14.75;;;;;;;1.72;100.00;99606.81;5272972;28;20300;-77
2023/01/18 09:14:25;;;;;;;26.90;14.07;;;;;;;2.07;100.00;99612.34;5278194;28;20444;-77
2023/01/18 09:16:55;;;;;;;39.22;16.48;;;;;;;2.54;100.00;99611.53;5275323;28;20050;-77
2023/01/18 09:19:26;;;;;;;36.03;15.20;;;;;;;2.34;100.00;99613.41;5277390;28;20035;-77
2023/01/18 09:21:56;;;;;;;35.67;16.27;;;;;;;2.34;100.00;99616.06;5268247;28;20470;-76
2023/01/18 09:24:27;;;;;;;32.40;14.13;;;;;;;2.67;100.00;99614.69;5268239;28;20036;-76
2023/01/18 09:26:57;;;;;;;31.50;15.27;;;;;;;2.67;100.00;99612.03;5269155;28;20031;-76
2023/01/18 09:29:28;;;;;;;32.65;16.23;;;;;;;2.59;100.00;99623.34;5269193;28;20438;-76
2023/01/18 09:31:59;;;;;;;30.10;14.43;;;;;;;2.06;100.00;99623.09;5268982;28;20107;-76
2023/01/18 09:34:29;;;;;;;27.50;14.85;;;;;;;1.99;100.00;99620.16;5282807;28;20036;-76
2023/01/18 09:37:00;;;;;;;27.95;14.48;;;;;;;1.82;100.00;99626.16;5268898;28;20373;-76
2023/01/18 09:39:30;;;;;;;29.35;15.18;;;;;;;1.32;100.00;99638.66;5273794;28;20031;-76
2023/01/18 09:42:03;;;;;;;22.95;13.27;;;;;;;1.07;100.00;99637.34;5290042;28;20027;-76
2023/01/18 09:44:39;;;;;;;28.23;14.77;;;;;;;0.61;100.00;99642.19;5270249;28;20055;-77
2023/01/18 09:47:20;;;;;;;33.92;16.10;;;;;;;0.38;100.00;99644.16;5281775;28;20023;-76
2023/01/18 09:49:58;;;;;;;34.80;16.25;;;;;;;0.30;100.00;99653.66;5268763;28;20096;-76
2023/01/18 09:52:31;;;;;;;35.55;16.98;;;;;;;0.34;100.00;99657.72;5273406;28;20019;-76
2023/01/18 09:55:32;;;;;;;48.17;16.80;;;;;;;0.63;100.00;99656.06;5277109;28;20400;-76
2023/01/18 09:58:30;;;;;;;51.80;19.58;;;;;;;1.45;100.00;99661.19;5268460;28;20044;-76
2023/01/18 10:01:05;;;;;;;38.55;17.17;;;;;;;1.91;100.00;99659.72;5255857;28;20020;-76
2023/01/18 10:03:49;;;;;;;32.55;14.73;;;;;;;2.51;100.00;99667.41;5268226;28;20081;-77
2023/01/18 10:06:31;;;;;;;25.63;14.18;;;;;;;3.00;100.00;99657.47;5268348;28;20027;-76
2023/01/18 10:09:10;;;;;;;26.08;12.95;;;;;;;3.41;100.00;99661.44;5255163;28;20023;-77
2023/01/18 10:11:58;;;;;;;27.25;13.00;;;;;;;3.02;100.00;99666.97;5267790;28;20526;-77
2023/01/18 10:14:37;;;;;;;30.60;12.73;;;;;;;3.32;100.00;99665.84;5268063;28;20698;-77
2023/01/18 10:17:13;;;;;;;36.97;16.65;;;;;;;3.21;100.00;99663.34;5253677;28;20032;-77
2023/01/18 10:19:44;;;;;;;36.15;16.08;;;;;;;3.09;100.00;99672.50;5267696;28;20693;-77
2023/01/18 10:22:25;;;;;;;86.72;29.65;;;;;;;2.98;100.00;99673.53;5267194;28;20102;-77
2023/01/18 10:25:04;;;;;;;25.67;11.40;;;;;;;2.83;100.00;99678.47;5272259;28;20027;-77
2023/01/18 10:27:56;;;;;;;94.88;32.35;;;;;;;2.68;100.00;99682.56;5274444;28;20420;-77
2023/01/18 10:30:39;;;;;;;25.45;11.15;;;;;;;2.62;100.00;99685.78;5267025;28;20031;-77
2023/01/18 10:33:17;;;;;;;25.30;11.43;;;;;;;2.55;100.00;99687.31;5267863;28;20434;-77
2023/01/18 10:35:51;;;;;;;20.50;10.95;;;;;;;2.55;100.00;99688.16;5267011;28;20028;-77
2023/01/18 10:38:27;;;;;;;28.15;14.50;;;;;;;2.61;100.00;99692.06;5279930;22;20049;-73
2023/01/18 10:40:59;;;;;;;25.27;12.13;;;;;;;2.65;100.00;99689.94;5254469;28;20064;-73
2023/01/18 10:43:30;;;;;;;24.48;12.00;;;;;;;2.70;100.00;99691.19;5243961;28;20035;-73
2023/01/18 10:46:01;;;;;;;27.88;11.40;;;;;;;2.71;100.00;99690.22;5238542;28;20024;-73
2023/01/18 10:48:32;;;;;;;26.75;13.00;;;;;;;2.68;100.00;99695.81;5225401;28;20029;-73
2023/01/18 10:51:05;;;;;;;27.10;9.80;;;;;;;2.71;100.00;99703.47;5225223;28;20560;-73
2023/01/18 10:53:38;;;;;;;33.17;15.68;;;;;;;2.69;100.00;99689.53;5239985;28;20036;-73
2023/01/18 10:56:08;;;;;;;22.65;10.00;;;;;;;2.74;100.00;99689.94;5245720;28;20071;-73
2023/01/18 10:58:56;;;;;;;23.33;10.70;;;;;;;2.74;100.00;99694.38;5240288;28;20064;-74
2023/01/18 11:01:35;;;;;;;21.25;10.65;;;;;;;2.69;100.00;99686.03;5225223;28;20064;-73
2023/01/18 11:04:21;;;;;;;24.13;10.57;;;;;;;2.75;100.00;99691.59;5232074;28;20024;-73
2023/01/18 11:06:53;;;;;;;;;;;;;;;2.81;100.00;99695.47;5249021;28;20398;-72
2023/01/18 11:09:33;;;;;;;19.13;10.02;;;;;;;2.79;100.00;99694.78;5236623;28;19913;-73
2023/01/18 11:12:32;;;;;;;25.10;10.38;;;;;;;2.87;100.00;99702.03;5245319;28;20027;-73
2023/01/18 11:15:12;;;;;;;21.42;9.65;;;;;;;2.95;100.00;99700.31;5232338;28;20025;-73
2023/01/18 11:17:53;;;;;;;18.70;9.02;;;;;;;3.05;100.00;99706.41;5215135;28;20029;-73
2023/01/18 11:20:29;;;;;;;16.92;9.02;;;;;;;3.17;100.00;99704.41;5224779;28;20470;-73
2023/01/18 11:23:04;;;;;;;20.08;9.13;;;;;;;3.19;100.00;99710.38;5226766;28;20100;-74
2023/01/18 11:25:38;;;;;;;21.73;8.65;;;;;;;3.14;100.00;99699.41;5234984;28;20045;-73
2023/01/18 11:28:40;;;;;;;14.98;7.93;;;;;;;3.21;100.00;99700.47;5242714;28;20028;-73
2023/01/18 11:31:21;;;;;;;20.45;8.05;;;;;;;3.29;100.00;99700.56;5226788;28;20040;-73
2023/01/18 11:33:57;;;;;;;17.95;8.55;;;;;;;3.30;100.00;99693.47;5233747;28;20393;-72
2023/01/18 11:36:37;;;;;;;21.15;7.72;;;;;;;3.27;100.00;99702.56;5224135;28;20028;-73
2023/01/18 11:39:20;;;;;;;15.73;7.22;;;;;;;3.25;100.00;99696.53;5225329;28;20330;-73
2023/01/18 11:42:08;;;;;;;16.02;6.75;;;;;;;3.33;100.00;99701.13;5231381;28;20021;-73
2023/01/18 11:44:48;;;;;;;15.57;7.55;;;;;;;3.43;100.00;99699.25;5224350;28;20029;-73
2023/01/18 11:47:26;;;;;;;15.00;6.45;;;;;;;3.47;100.00;99702.44;5222399;28;20293;-73
2023/01/18 11:50:12;;;;;;;14.77;6.28;;;;;;;3.46;100.00;99698.09;5222353;28;20024;-73
2023/01/18 11:52:52;;;;;;;10.80;6.55;;;;;;;3.47;100.00;99697.16;5230660;28;20024;-73
2023/01/18 11:55:54;;;;;;;10.43;4.95;;;;;;;3.52;100.00;99701.03;5242860;28;20107;-73
2023/01/18 11:58:28;;;;;;;11.73;4.25;;;;;;;3.54;100.00;99698.22;5235531;28;20036;-73
2023/01/18 12:01:27;;;;;;;12.05;4.82;;;;;;;3.59;100.00;99695.94;5224331;28;20021;-73
2023/01/18 12:04:16;;;;;;;15.93;6.72;;;;;;;3.60;100.00;99703.75;5229828;28;20028;-73
2023/01/18 12:07:07;;;;;;;11.32;4.32;;;;;;;3.73;100.00;99705.22;5230785;28;20113;-73
2023/01/18 12:09:59;;;;;;;8.57;4.75;;;;;;;3.81;100.00;99698.16;5244588;28;20067;-73
2023/01/18 12:13:05;;;;;;;10.18;3.88;;;;;;;3.82;100.00;99701.66;5235590;28;20029;-73
2023/01/18 12:16:07;;;;;;;16.05;6.30;;;;;;;3.79;100.00;99705.44;5224156;28;20025;-73